sensor_id;sensor_type;location;lat;lon;timestamp;P1;durP1;ratioP1;P2;durP2;ratioP2
80576;SDS011;69937;52.420;10.538;2024-03-29T00:04:02;3.75;;;3.55;;
80576;SDS011;69937;52.420;10.538;2024-03-29T00:09:03;6.63;;;2.78;;
80576;SDS011;69937;52.420;10.538;2024-03-29T00:14:04;4.28;;;3.90;;
80576;SDS011;69937;52.420;10.538;2024-03-29T00:19:04;3.63;;;3.40;;
80576;SDS011;69937;52.420;10.538;2024-03-29T00:24:05;3.75;;;3.45;;
80576;SDS011;69937;52.420;10.538;2024-03-29T00:29:05;3.33;;;3.03;;
80576;SDS011;69937;52.420;10.538;2024-03-29T00:34:06;3.83;;;3.17;;
80576;SDS011;69937;52.420;10.538;2024-03-29T00:39:07;4.25;;;3.55;;
80576;SDS011;69937;52.420;10.538;2024-03-29T00:44:11;3.45;;;3.25;;
80576;SDS011;69937;52.420;10.538;2024-03-29T00:49:11;3.30;;;3.05;;
80576;SDS011;69937;52.420;10.538;2024-03-29T00:54:12;6.78;;;3.75;;
80576;SDS011;69937;52.420;10.538;2024-03-29T00:59:12;5.07;;;3.17;;
80576;SDS011;69937;52.420;10.538;2024-03-29T01:04:13;3.05;;;2.85;;
80576;SDS011;69937;52.420;10.538;2024-03-29T01:09:14;3.28;;;3.08;;
80576;SDS011;69937;52.420;10.538;2024-03-29T01:14:14;3.22;;;3.03;;
80576;SDS011;69937;52.420;10.538;2024-03-29T01:19:15;3.25;;;2.95;;
80576;SDS011;69937;52.420;10.538;2024-03-29T01:24:15;3.63;;;3.15;;
80576;SDS011;69937;52.420;10.538;2024-03-29T01:29:16;3.58;;;3.38;;
80576;SDS011;69937;52.420;10.538;2024-03-29T01:34:17;3.40;;;3.20;;
80576;SDS011;69937;52.420;10.538;2024-03-29T01:39:17;5.63;;;3.30;;
80576;SDS011;69937;52.420;10.538;2024-03-29T01:44:21;3.58;;;3.38;;
80576;SDS011;69937;52.420;10.538;2024-03-29T01:49:21;3.70;;;3.50;;
80576;SDS011;69937;52.420;10.538;2024-03-29T01:54:22;3.97;;;3.60;;
80576;SDS011;69937;52.420;10.538;2024-03-29T01:59:23;4.45;;;3.50;;
80576;SDS011;69937;52.420;10.538;2024-03-29T02:04:25;3.10;;;2.90;;
80576;SDS011;69937;52.420;10.538;2024-03-29T02:09:26;6.53;;;3.55;;
80576;SDS011;69937;52.420;10.538;2024-03-29T02:14:27;4.78;;;3.70;;
80576;SDS011;69937;52.420;10.538;2024-03-29T02:19:28;4.00;;;2.70;;
80576;SDS011;69937;52.420;10.538;2024-03-29T02:24:28;3.83;;;3.28;;
80576;SDS011;69937;52.420;10.538;2024-03-29T02:29:29;3.83;;;3.15;;
80576;SDS011;69937;52.420;10.538;2024-03-29T02:34:31;3.15;;;2.95;;
80576;SDS011;69937;52.420;10.538;2024-03-29T02:39:31;9.73;;;3.80;;
80576;SDS011;69937;52.420;10.538;2024-03-29T02:44:32;3.80;;;3.42;;
80576;SDS011;69937;52.420;10.538;2024-03-29T02:49:32;3.28;;;3.05;;
80576;SDS011;69937;52.420;10.538;2024-03-29T02:54:33;4.03;;;3.15;;
80576;SDS011;69937;52.420;10.538;2024-03-29T02:59:34;3.97;;;3.17;;
80576;SDS011;69937;52.420;10.538;2024-03-29T03:04:34;3.55;;;3.22;;
80576;SDS011;69937;52.420;10.538;2024-03-29T03:09:37;3.20;;;3.00;;
80576;SDS011;69937;52.420;10.538;2024-03-29T03:14:56;3.42;;;3.22;;
80576;SDS011;69937;52.420;10.538;2024-03-29T03:19:57;4.28;;;2.65;;
80576;SDS011;69937;52.420;10.538;2024-03-29T03:24:58;4.20;;;3.80;;
80576;SDS011;69937;52.420;10.538;2024-03-29T03:29:59;5.68;;;3.90;;
80576;SDS011;69937;52.420;10.538;2024-03-29T03:34:59;8.10;;;4.15;;
80576;SDS011;69937;52.420;10.538;2024-03-29T03:40:00;12.38;;;3.22;;
80576;SDS011;69937;52.420;10.538;2024-03-29T03:45:00;7.00;;;3.88;;
80576;SDS011;69937;52.420;10.538;2024-03-29T03:50:01;4.47;;;3.45;;
80576;SDS011;69937;52.420;10.538;2024-03-29T03:55:02;4.38;;;2.88;;
80576;SDS011;69937;52.420;10.538;2024-03-29T04:00:03;6.18;;;3.78;;
80576;SDS011;69937;52.420;10.538;2024-03-29T04:05:04;4.32;;;3.38;;
80576;SDS011;69937;52.420;10.538;2024-03-29T04:10:06;3.20;;;3.00;;
80576;SDS011;69937;52.420;10.538;2024-03-29T04:15:07;3.03;;;2.78;;
80576;SDS011;69937;52.420;10.538;2024-03-29T04:20:08;2.80;;;2.67;;
80576;SDS011;69937;52.420;10.538;2024-03-29T04:25:09;2.70;;;2.45;;
80576;SDS011;69937;52.420;10.538;2024-03-29T04:30:10;3.22;;;2.95;;
80576;SDS011;69937;52.420;10.538;2024-03-29T04:35:11;5.72;;;3.15;;
80576;SDS011;69937;52.420;10.538;2024-03-29T04:40:11;4.03;;;2.97;;
80576;SDS011;69937;52.420;10.538;2024-03-29T04:45:12;4.45;;;2.83;;
80576;SDS011;69937;52.420;10.538;2024-03-29T04:50:12;2.92;;;2.72;;
80576;SDS011;69937;52.420;10.538;2024-03-29T04:55:13;2.92;;;2.55;;
80576;SDS011;69937;52.420;10.538;2024-03-29T05:00:14;3.50;;;2.38;;
80576;SDS011;69937;52.420;10.538;2024-03-29T05:05:15;3.05;;;2.85;;
80576;SDS011;69937;52.420;10.538;2024-03-29T05:10:15;2.70;;;2.50;;
80576;SDS011;69937;52.420;10.538;2024-03-29T05:15:16;4.38;;;3.08;;
80576;SDS011;69937;52.420;10.538;2024-03-29T05:20:17;4.22;;;2.65;;
80576;SDS011;69937;52.420;10.538;2024-03-29T05:25:17;2.67;;;2.47;;
80576;SDS011;69937;52.420;10.538;2024-03-29T05:30:18;2.85;;;2.65;;
80576;SDS011;69937;52.420;10.538;2024-03-29T05:35:19;3.10;;;2.90;;
80576;SDS011;69937;52.420;10.538;2024-03-29T05:40:20;5.15;;;2.95;;
80576;SDS011;69937;52.420;10.538;2024-03-29T05:45:25;5.45;;;3.75;;
80576;SDS011;69937;52.420;10.538;2024-03-29T05:50:27;3.35;;;3.15;;
80576;SDS011;69937;52.420;10.538;2024-03-29T05:55:27;2.95;;;2.75;;
80576;SDS011;69937;52.420;10.538;2024-03-29T06:00:28;3.13;;;2.90;;
80576;SDS011;69937;52.420;10.538;2024-03-29T06:05:29;2.88;;;2.53;;
80576;SDS011;69937;52.420;10.538;2024-03-29T06:10:29;2.28;;;2.10;;
80576;SDS011;69937;52.420;10.538;2024-03-29T06:15:30;4.20;;;2.85;;
80576;SDS011;69937;52.420;10.538;2024-03-29T06:20:49;5.00;;;2.55;;
80576;SDS011;69937;52.420;10.538;2024-03-29T06:25:49;3.60;;;2.63;;
80576;SDS011;69937;52.420;10.538;2024-03-29T06:30:51;2.97;;;2.78;;
80576;SDS011;69937;52.420;10.538;2024-03-29T06:35:54;3.55;;;3.25;;
80576;SDS011;69937;52.420;10.538;2024-03-29T06:40:55;3.60;;;2.85;;
80576;SDS011;69937;52.420;10.538;2024-03-29T06:45:56;2.92;;;2.63;;
80576;SDS011;69937;52.420;10.538;2024-03-29T06:50:58;3.20;;;2.72;;
80576;SDS011;69937;52.420;10.538;2024-03-29T06:55:59;2.22;;;2.13;;
80576;SDS011;69937;52.420;10.538;2024-03-29T07:01:01;4.40;;;2.53;;
80576;SDS011;69937;52.420;10.538;2024-03-29T07:06:02;2.72;;;2.53;;
80576;SDS011;69937;52.420;10.538;2024-03-29T07:11:03;3.47;;;3.03;;
80576;SDS011;69937;52.420;10.538;2024-03-29T07:16:03;3.00;;;2.70;;
80576;SDS011;69937;52.420;10.538;2024-03-29T07:21:04;3.13;;;2.45;;
80576;SDS011;69937;52.420;10.538;2024-03-29T07:26:06;3.20;;;2.47;;
80576;SDS011;69937;52.420;10.538;2024-03-29T07:31:07;2.50;;;2.38;;
80576;SDS011;69937;52.420;10.538;2024-03-29T07:36:08;2.65;;;2.45;;
80576;SDS011;69937;52.420;10.538;2024-03-29T07:41:12;4.18;;;2.55;;
80576;SDS011;69937;52.420;10.538;2024-03-29T07:46:13;2.65;;;2.45;;
80576;SDS011;69937;52.420;10.538;2024-03-29T07:51:14;2.00;;;1.88;;
80576;SDS011;69937;52.420;10.538;2024-03-29T07:56:14;2.67;;;2.15;;
80576;SDS011;69937;52.420;10.538;2024-03-29T08:01:19;3.28;;;2.13;;
80576;SDS011;69937;52.420;10.538;2024-03-29T08:06:20;2.65;;;2.42;;
80576;SDS011;69937;52.420;10.538;2024-03-29T08:11:23;2.72;;;2.53;;
80576;SDS011;69937;52.420;10.538;2024-03-29T08:16:23;3.35;;;2.10;;
80576;SDS011;69937;52.420;10.538;2024-03-29T08:21:24;3.42;;;2.53;;
80576;SDS011;69937;52.420;10.538;2024-03-29T08:26:27;2.80;;;2.38;;
80576;SDS011;69937;52.420;10.538;2024-03-29T08:31:31;3.20;;;2.53;;
80576;SDS011;69937;52.420;10.538;2024-03-29T08:36:31;2.55;;;2.35;;
80576;SDS011;69937;52.420;10.538;2024-03-29T08:41:32;2.05;;;1.92;;
80576;SDS011;69937;52.420;10.538;2024-03-29T08:46:33;2.33;;;1.40;;
80576;SDS011;69937;52.420;10.538;2024-03-29T08:51:33;2.97;;;1.75;;
80576;SDS011;69937;52.420;10.538;2024-03-29T08:56:34;2.67;;;1.58;;
80576;SDS011;69937;52.420;10.538;2024-03-29T09:01:37;2.10;;;1.50;;
80576;SDS011;69937;52.420;10.538;2024-03-29T09:06:49;1.98;;;1.63;;
80576;SDS011;69937;52.420;10.538;2024-03-29T09:11:49;2.85;;;1.45;;
80576;SDS011;69937;52.420;10.538;2024-03-29T09:16:50;2.05;;;1.50;;
80576;SDS011;69937;52.420;10.538;2024-03-29T09:21:51;1.80;;;1.70;;
80576;SDS011;69937;52.420;10.538;2024-03-29T09:26:51;1.60;;;1.48;;
80576;SDS011;69937;52.420;10.538;2024-03-29T09:31:52;2.10;;;1.58;;
80576;SDS011;69937;52.420;10.538;2024-03-29T09:36:52;3.17;;;1.55;;
80576;SDS011;69937;52.420;10.538;2024-03-29T09:41:53;1.30;;;1.20;;
80576;SDS011;69937;52.420;10.538;2024-03-29T09:46:59;2.38;;;1.50;;
80576;SDS011;69937;52.420;10.538;2024-03-29T09:52:03;2.78;;;1.40;;
80576;SDS011;69937;52.420;10.538;2024-03-29T09:57:05;1.55;;;1.33;;
80576;SDS011;69937;52.420;10.538;2024-03-29T10:02:16;1.77;;;1.67;;
80576;SDS011;69937;52.420;10.538;2024-03-29T10:07:17;1.65;;;1.55;;
80576;SDS011;69937;52.420;10.538;2024-03-29T10:12:19;6.82;;;1.63;;
80576;SDS011;69937;52.420;10.538;2024-03-29T10:17:20;1.48;;;1.17;;
80576;SDS011;69937;52.420;10.538;2024-03-29T10:22:21;2.13;;;1.92;;
80576;SDS011;69937;52.420;10.538;2024-03-29T10:27:23;2.10;;;1.45;;
80576;SDS011;69937;52.420;10.538;2024-03-29T10:32:26;1.65;;;1.55;;
80576;SDS011;69937;52.420;10.538;2024-03-29T10:37:27;1.77;;;1.00;;
80576;SDS011;69937;52.420;10.538;2024-03-29T10:42:29;1.05;;;0.98;;
80576;SDS011;69937;52.420;10.538;2024-03-29T10:47:33;1.08;;;0.98;;
80576;SDS011;69937;52.420;10.538;2024-03-29T10:52:34;1.23;;;1.08;;
80576;SDS011;69937;52.420;10.538;2024-03-29T10:57:35;1.20;;;1.05;;
80576;SDS011;69937;52.420;10.538;2024-03-29T11:08:03;1.02;;;0.80;;
80576;SDS011;69937;52.420;10.538;2024-03-29T11:18:11;1.05;;;0.60;;
80576;SDS011;69937;52.420;10.538;2024-03-29T11:23:14;1.35;;;1.20;;
80576;SDS011;69937;52.420;10.538;2024-03-29T11:28:22;1.92;;;0.70;;
80576;SDS011;69937;52.420;10.538;2024-03-29T11:33:32;0.95;;;0.70;;
80576;SDS011;69937;52.420;10.538;2024-03-29T11:38:36;0.80;;;0.70;;
80576;SDS011;69937;52.420;10.538;2024-03-29T11:43:37;0.98;;;0.75;;
80576;SDS011;69937;52.420;10.538;2024-03-29T11:48:39;1.23;;;0.90;;
80576;SDS011;69937;52.420;10.538;2024-03-29T11:53:41;1.30;;;1.20;;
80576;SDS011;69937;52.420;10.538;2024-03-29T11:58:42;1.20;;;1.10;;
80576;SDS011;69937;52.420;10.538;2024-03-29T12:03:43;1.35;;;0.85;;
80576;SDS011;69937;52.420;10.538;2024-03-29T12:08:44;1.20;;;0.88;;
80576;SDS011;69937;52.420;10.538;2024-03-29T12:13:44;0.98;;;0.68;;
80576;SDS011;69937;52.420;10.538;2024-03-29T12:18:48;1.23;;;1.00;;
80576;SDS011;69937;52.420;10.538;2024-03-29T12:23:48;1.00;;;0.90;;
80576;SDS011;69937;52.420;10.538;2024-03-29T12:28:49;1.77;;;1.08;;
80576;SDS011;69937;52.420;10.538;2024-03-29T12:33:51;1.35;;;0.70;;
80576;SDS011;69937;52.420;10.538;2024-03-29T12:38:56;1.77;;;0.55;;
80576;SDS011;69937;52.420;10.538;2024-03-29T12:43:58;1.80;;;0.82;;
80576;SDS011;69937;52.420;10.538;2024-03-29T12:49:00;2.53;;;0.77;;
80576;SDS011;69937;52.420;10.538;2024-03-29T12:54:01;1.23;;;0.68;;
80576;SDS011;69937;52.420;10.538;2024-03-29T12:59:03;1.13;;;0.82;;
80576;SDS011;69937;52.420;10.538;2024-03-29T13:04:04;1.50;;;0.82;;
80576;SDS011;69937;52.420;10.538;2024-03-29T13:09:04;2.40;;;0.80;;
80576;SDS011;69937;52.420;10.538;2024-03-29T13:14:05;3.45;;;0.63;;
80576;SDS011;69937;52.420;10.538;2024-03-29T13:19:06;1.77;;;0.43;;
80576;SDS011;69937;52.420;10.538;2024-03-29T13:24:07;0.65;;;0.52;;
80576;SDS011;69937;52.420;10.538;2024-03-29T13:29:08;0.88;;;0.40;;
80576;SDS011;69937;52.420;10.538;2024-03-29T13:34:09;1.67;;;0.38;;
80576;SDS011;69937;52.420;10.538;2024-03-29T13:39:13;2.00;;;0.65;;
80576;SDS011;69937;52.420;10.538;2024-03-29T13:44:15;1.23;;;0.65;;
80576;SDS011;69937;52.420;10.538;2024-03-29T13:49:17;1.10;;;0.75;;
80576;SDS011;69937;52.420;10.538;2024-03-29T13:54:20;1.05;;;0.77;;
80576;SDS011;69937;52.420;10.538;2024-03-29T13:59:21;2.83;;;0.82;;
80576;SDS011;69937;52.420;10.538;2024-03-29T14:04:22;1.23;;;0.65;;
80576;SDS011;69937;52.420;10.538;2024-03-29T14:09:22;5.13;;;0.73;;
80576;SDS011;69937;52.420;10.538;2024-03-29T14:14:23;2.55;;;0.95;;
80576;SDS011;69937;52.420;10.538;2024-03-29T14:19:24;2.90;;;0.93;;
80576;SDS011;69937;52.420;10.538;2024-03-29T14:24:26;2.67;;;0.88;;
80576;SDS011;69937;52.420;10.538;2024-03-29T14:29:28;1.40;;;0.63;;
80576;SDS011;69937;52.420;10.538;2024-03-29T14:34:29;1.05;;;0.75;;
80576;SDS011;69937;52.420;10.538;2024-03-29T14:39:37;1.35;;;0.73;;
80576;SDS011;69937;52.420;10.538;2024-03-29T14:44:38;1.52;;;0.65;;
80576;SDS011;69937;52.420;10.538;2024-03-29T14:49:39;1.80;;;1.10;;
80576;SDS011;69937;52.420;10.538;2024-03-29T14:54:39;1.02;;;0.68;;
80576;SDS011;69937;52.420;10.538;2024-03-29T14:59:40;1.85;;;0.80;;
80576;SDS011;69937;52.420;10.538;2024-03-29T15:04:40;1.20;;;0.68;;
80576;SDS011;69937;52.420;10.538;2024-03-29T15:09:41;1.63;;;0.77;;
80576;SDS011;69937;52.420;10.538;2024-03-29T15:14:42;1.02;;;0.60;;
80576;SDS011;69937;52.420;10.538;2024-03-29T15:19:45;0.98;;;0.73;;
80576;SDS011;69937;52.420;10.538;2024-03-29T15:24:50;1.70;;;1.02;;
80576;SDS011;69937;52.420;10.538;2024-03-29T15:29:54;1.42;;;0.77;;
80576;SDS011;69937;52.420;10.538;2024-03-29T15:34:55;1.52;;;0.73;;
80576;SDS011;69937;52.420;10.538;2024-03-29T15:39:56;0.95;;;0.40;;
80576;SDS011;69937;52.420;10.538;2024-03-29T15:44:56;1.10;;;0.45;;
80576;SDS011;69937;52.420;10.538;2024-03-29T15:49:57;1.65;;;0.60;;
80576;SDS011;69937;52.420;10.538;2024-03-29T15:54:57;2.17;;;0.75;;
80576;SDS011;69937;52.420;10.538;2024-03-29T15:59:58;1.15;;;0.57;;
80576;SDS011;69937;52.420;10.538;2024-03-29T16:04:59;1.67;;;0.57;;
80576;SDS011;69937;52.420;10.538;2024-03-29T16:10:00;1.02;;;0.43;;
80576;SDS011;69937;52.420;10.538;2024-03-29T16:15:01;1.10;;;0.50;;
80576;SDS011;69937;52.420;10.538;2024-03-29T16:20:02;1.10;;;0.47;;
80576;SDS011;69937;52.420;10.538;2024-03-29T16:25:03;1.20;;;0.70;;
80576;SDS011;69937;52.420;10.538;2024-03-29T16:30:04;1.38;;;0.88;;
80576;SDS011;69937;52.420;10.538;2024-03-29T16:35:06;1.38;;;0.75;;
80576;SDS011;69937;52.420;10.538;2024-03-29T16:40:06;1.35;;;0.90;;
80576;SDS011;69937;52.420;10.538;2024-03-29T16:45:07;1.33;;;0.82;;
80576;SDS011;69937;52.420;10.538;2024-03-29T16:50:08;3.20;;;0.95;;
80576;SDS011;69937;52.420;10.538;2024-03-29T16:55:09;1.85;;;1.02;;
80576;SDS011;69937;52.420;10.538;2024-03-29T17:00:11;1.10;;;0.80;;
80576;SDS011;69937;52.420;10.538;2024-03-29T17:05:12;2.15;;;1.52;;
80576;SDS011;69937;52.420;10.538;2024-03-29T17:10:12;1.55;;;0.80;;
80576;SDS011;69937;52.420;10.538;2024-03-29T17:15:13;1.65;;;1.23;;
80576;SDS011;69937;52.420;10.538;2024-03-29T17:20:14;1.67;;;1.08;;
80576;SDS011;69937;52.420;10.538;2024-03-29T17:25:14;3.08;;;1.10;;
80576;SDS011;69937;52.420;10.538;2024-03-29T17:30:15;2.15;;;1.00;;
80576;SDS011;69937;52.420;10.538;2024-03-29T17:35:16;1.45;;;1.17;;
80576;SDS011;69937;52.420;10.538;2024-03-29T17:40:18;2.38;;;1.30;;
80576;SDS011;69937;52.420;10.538;2024-03-29T17:45:18;1.65;;;1.55;;
80576;SDS011;69937;52.420;10.538;2024-03-29T17:50:19;1.20;;;1.00;;
80576;SDS011;69937;52.420;10.538;2024-03-29T17:55:20;2.53;;;1.48;;
80576;SDS011;69937;52.420;10.538;2024-03-29T18:00:21;1.70;;;1.17;;
80576;SDS011;69937;52.420;10.538;2024-03-29T18:05:21;2.60;;;1.33;;
80576;SDS011;69937;52.420;10.538;2024-03-29T18:10:24;1.92;;;1.60;;
80576;SDS011;69937;52.420;10.538;2024-03-29T18:15:25;3.90;;;2.53;;
80576;SDS011;69937;52.420;10.538;2024-03-29T18:20:26;2.10;;;1.30;;
80576;SDS011;69937;52.420;10.538;2024-03-29T18:25:26;2.53;;;1.60;;
80576;SDS011;69937;52.420;10.538;2024-03-29T18:30:27;3.20;;;2.33;;
80576;SDS011;69937;52.420;10.538;2024-03-29T18:35:30;2.08;;;1.35;;
80576;SDS011;69937;52.420;10.538;2024-03-29T18:40:30;1.92;;;1.30;;
80576;SDS011;69937;52.420;10.538;2024-03-29T18:45:31;1.35;;;1.25;;
80576;SDS011;69937;52.420;10.538;2024-03-29T18:50:36;1.95;;;1.20;;
80576;SDS011;69937;52.420;10.538;2024-03-29T18:55:37;2.00;;;1.33;;
80576;SDS011;69937;52.420;10.538;2024-03-29T19:00:37;1.88;;;1.45;;
80576;SDS011;69937;52.420;10.538;2024-03-29T19:05:38;1.27;;;1.05;;
80576;SDS011;69937;52.420;10.538;2024-03-29T19:10:39;1.98;;;1.50;;
80576;SDS011;69937;52.420;10.538;2024-03-29T19:15:40;1.80;;;1.20;;
80576;SDS011;69937;52.420;10.538;2024-03-29T19:20:41;1.50;;;1.40;;
80576;SDS011;69937;52.420;10.538;2024-03-29T19:25:42;2.15;;;1.33;;
80576;SDS011;69937;52.420;10.538;2024-03-29T19:30:42;1.65;;;1.52;;
80576;SDS011;69937;52.420;10.538;2024-03-29T19:35:43;1.95;;;1.50;;
80576;SDS011;69937;52.420;10.538;2024-03-29T19:40:44;1.48;;;1.30;;
80576;SDS011;69937;52.420;10.538;2024-03-29T19:45:44;3.42;;;1.42;;
80576;SDS011;69937;52.420;10.538;2024-03-29T19:50:45;1.90;;;1.45;;
80576;SDS011;69937;52.420;10.538;2024-03-29T19:55:51;2.13;;;1.05;;
80576;SDS011;69937;52.420;10.538;2024-03-29T20:00:53;2.03;;;1.25;;
80576;SDS011;69937;52.420;10.538;2024-03-29T20:05:54;2.20;;;1.90;;
80576;SDS011;69937;52.420;10.538;2024-03-29T20:10:54;2.47;;;1.98;;
80576;SDS011;69937;52.420;10.538;2024-03-29T20:15:55;3.70;;;3.13;;
80576;SDS011;69937;52.420;10.538;2024-03-29T20:20:56;3.13;;;1.48;;
80576;SDS011;69937;52.420;10.538;2024-03-29T20:25:56;1.58;;;1.30;;
80576;SDS011;69937;52.420;10.538;2024-03-29T20:31:01;1.90;;;1.60;;
80576;SDS011;69937;52.420;10.538;2024-03-29T20:36:05;4.00;;;1.48;;
80576;SDS011;69937;52.420;10.538;2024-03-29T20:41:06;3.63;;;1.55;;
80576;SDS011;69937;52.420;10.538;2024-03-29T20:46:06;5.07;;;3.67;;
80576;SDS011;69937;52.420;10.538;2024-03-29T20:51:07;4.35;;;3.38;;
80576;SDS011;69937;52.420;10.538;2024-03-29T20:56:07;5.57;;;4.07;;
80576;SDS011;69937;52.420;10.538;2024-03-29T21:01:08;1.75;;;1.60;;
80576;SDS011;69937;52.420;10.538;2024-03-29T21:06:09;2.30;;;1.40;;
80576;SDS011;69937;52.420;10.538;2024-03-29T21:11:09;2.03;;;1.52;;
80576;SDS011;69937;52.420;10.538;2024-03-29T21:16:10;3.22;;;1.77;;
80576;SDS011;69937;52.420;10.538;2024-03-29T21:21:10;2.80;;;1.77;;
80576;SDS011;69937;52.420;10.538;2024-03-29T21:26:11;2.15;;;1.23;;
80576;SDS011;69937;52.420;10.538;2024-03-29T21:31:11;2.40;;;1.90;;
80576;SDS011;69937;52.420;10.538;2024-03-29T21:36:12;2.28;;;1.63;;
80576;SDS011;69937;52.420;10.538;2024-03-29T21:41:12;3.63;;;1.60;;
80576;SDS011;69937;52.420;10.538;2024-03-29T21:46:15;1.85;;;1.65;;
80576;SDS011;69937;52.420;10.538;2024-03-29T21:51:15;2.35;;;1.85;;
80576;SDS011;69937;52.420;10.538;2024-03-29T21:56:16;1.80;;;1.42;;
80576;SDS011;69937;52.420;10.538;2024-03-29T22:01:17;1.65;;;1.48;;
80576;SDS011;69937;52.420;10.538;2024-03-29T22:06:20;1.77;;;1.55;;
80576;SDS011;69937;52.420;10.538;2024-03-29T22:11:20;1.77;;;1.63;;
80576;SDS011;69937;52.420;10.538;2024-03-29T22:16:21;1.80;;;1.70;;
80576;SDS011;69937;52.420;10.538;2024-03-29T22:21:22;1.58;;;1.42;;
80576;SDS011;69937;52.420;10.538;2024-03-29T22:26:22;1.90;;;1.48;;
80576;SDS011;69937;52.420;10.538;2024-03-29T22:31:24;2.92;;;1.98;;
80576;SDS011;69937;52.420;10.538;2024-03-29T22:36:31;2.90;;;2.28;;
80576;SDS011;69937;52.420;10.538;2024-03-29T22:41:33;3.92;;;2.50;;
80576;SDS011;69937;52.420;10.538;2024-03-29T22:46:34;3.28;;;2.58;;
80576;SDS011;69937;52.420;10.538;2024-03-29T22:51:34;3.22;;;2.25;;
80576;SDS011;69937;52.420;10.538;2024-03-29T22:56:35;3.80;;;3.25;;
80576;SDS011;69937;52.420;10.538;2024-03-29T23:01:36;5.22;;;2.42;;
80576;SDS011;69937;52.420;10.538;2024-03-29T23:06:36;2.58;;;2.15;;
80576;SDS011;69937;52.420;10.538;2024-03-29T23:11:37;3.03;;;2.35;;
80576;SDS011;69937;52.420;10.538;2024-03-29T23:16:37;2.47;;;1.90;;
80576;SDS011;69937;52.420;10.538;2024-03-29T23:21:38;2.15;;;1.95;;
80576;SDS011;69937;52.420;10.538;2024-03-29T23:26:39;1.60;;;1.25;;
80576;SDS011;69937;52.420;10.538;2024-03-29T23:31:39;2.92;;;1.90;;
80576;SDS011;69937;52.420;10.538;2024-03-29T23:36:40;2.13;;;1.88;;
80576;SDS011;69937;52.420;10.538;2024-03-29T23:41:40;2.20;;;1.90;;
80576;SDS011;69937;52.420;10.538;2024-03-29T23:46:41;2.20;;;1.67;;
80576;SDS011;69937;52.420;10.538;2024-03-29T23:51:42;2.70;;;1.83;;
80576;SDS011;69937;52.420;10.538;2024-03-29T23:56:42;2.53;;;2.13;;
